sensor_id;sensor_type;location;lat;lon;timestamp;P1;durP1;ratioP1;P2;durP2;ratioP2
14074;SDS011;12831;52.392;13.066;2023-03-01T00:01:51;18.40;;;9.10;;
14074;SDS011;12831;52.392;13.066;2023-03-01T00:04:17;16.67;;;9.20;;
14074;SDS011;12831;52.392;13.066;2023-03-01T00:06:42;14.83;;;8.20;;
14074;SDS011;12831;52.392;13.066;2023-03-01T00:09:12;18.27;;;8.87;;
14074;SDS011;12831;52.392;13.066;2023-03-01T00:11:38;13.27;;;7.43;;
14074;SDS011;12831;52.392;13.066;2023-03-01T00:14:04;20.63;;;8.83;;
14074;SDS011;12831;52.392;13.066;2023-03-01T00:16:31;13.80;;;7.80;;
14074;SDS011;12831;52.392;13.066;2023-03-01T00:18:59;14.43;;;8.30;;
14074;SDS011;12831;52.392;13.066;2023-03-01T00:21:25;13.87;;;8.47;;
14074;SDS011;12831;52.392;13.066;2023-03-01T00:23:51;16.70;;;9.13;;
14074;SDS011;12831;52.392;13.066;2023-03-01T00:26:18;15.73;;;7.70;;
14074;SDS011;12831;52.392;13.066;2023-03-01T00:28:43;13.17;;;7.80;;
14074;SDS011;12831;52.392;13.066;2023-03-01T00:31:16;21.00;;;7.83;;
14074;SDS011;12831;52.392;13.066;2023-03-01T00:33:43;16.10;;;8.77;;
14074;SDS011;12831;52.392;13.066;2023-03-01T00:36:09;16.37;;;8.70;;
14074;SDS011;12831;52.392;13.066;2023-03-01T00:38:36;13.20;;;7.77;;
14074;SDS011;12831;52.392;13.066;2023-03-01T00:41:03;14.20;;;8.40;;
14074;SDS011;12831;52.392;13.066;2023-03-01T00:43:29;14.43;;;7.97;;
14074;SDS011;12831;52.392;13.066;2023-03-01T00:46:00;13.03;;;7.97;;
14074;SDS011;12831;52.392;13.066;2023-03-01T00:48:26;15.40;;;8.35;;
14074;SDS011;12831;52.392;13.066;2023-03-01T00:50:51;15.23;;;7.93;;
14074;SDS011;12831;52.392;13.066;2023-03-01T00:53:17;12.37;;;7.93;;
14074;SDS011;12831;52.392;13.066;2023-03-01T00:55:43;14.30;;;7.90;;
14074;SDS011;12831;52.392;13.066;2023-03-01T00:58:09;20.50;;;9.60;;
14074;SDS011;12831;52.392;13.066;2023-03-01T01:00:34;14.03;;;7.60;;
14074;SDS011;12831;52.392;13.066;2023-03-01T01:03:00;15.73;;;8.20;;
14074;SDS011;12831;52.392;13.066;2023-03-01T01:05:26;16.27;;;8.57;;
14074;SDS011;12831;52.392;13.066;2023-03-01T01:07:52;17.80;;;8.40;;
14074;SDS011;12831;52.392;13.066;2023-03-01T01:10:18;15.17;;;8.00;;
14074;SDS011;12831;52.392;13.066;2023-03-01T01:12:44;15.93;;;10.03;;
14074;SDS011;12831;52.392;13.066;2023-03-01T01:15:10;15.20;;;7.97;;
14074;SDS011;12831;52.392;13.066;2023-03-01T01:17:38;15.67;;;8.07;;
14074;SDS011;12831;52.392;13.066;2023-03-01T01:20:04;13.87;;;8.30;;
14074;SDS011;12831;52.392;13.066;2023-03-01T01:22:30;18.70;;;9.20;;
14074;SDS011;12831;52.392;13.066;2023-03-01T01:24:56;16.23;;;8.90;;
14074;SDS011;12831;52.392;13.066;2023-03-01T01:27:21;20.00;;;10.60;;
14074;SDS011;12831;52.392;13.066;2023-03-01T01:29:47;13.50;;;7.93;;
14074;SDS011;12831;52.392;13.066;2023-03-01T01:32:13;14.87;;;7.97;;
14074;SDS011;12831;52.392;13.066;2023-03-01T01:34:39;13.57;;;8.23;;
14074;SDS011;12831;52.392;13.066;2023-03-01T01:37:05;18.10;;;9.57;;
14074;SDS011;12831;52.392;13.066;2023-03-01T01:39:34;15.57;;;9.43;;
14074;SDS011;12831;52.392;13.066;2023-03-01T01:42:00;14.30;;;7.77;;
14074;SDS011;12831;52.392;13.066;2023-03-01T01:44:27;16.83;;;9.93;;
14074;SDS011;12831;52.392;13.066;2023-03-01T01:47:03;19.27;;;9.70;;
14074;SDS011;12831;52.392;13.066;2023-03-01T01:52:04;15.57;;;8.63;;
14074;SDS011;12831;52.392;13.066;2023-03-01T01:54:43;14.20;;;8.30;;
14074;SDS011;12831;52.392;13.066;2023-03-01T01:57:13;18.80;;;9.10;;
14074;SDS011;12831;52.392;13.066;2023-03-01T01:59:40;19.57;;;9.20;;
14074;SDS011;12831;52.392;13.066;2023-03-01T02:02:08;13.90;;;8.30;;
14074;SDS011;12831;52.392;13.066;2023-03-01T02:04:34;17.10;;;8.77;;
14074;SDS011;12831;52.392;13.066;2023-03-01T02:07:01;16.47;;;8.53;;
14074;SDS011;12831;52.392;13.066;2023-03-01T02:09:28;18.00;;;9.40;;
14074;SDS011;12831;52.392;13.066;2023-03-01T02:11:56;21.80;;;8.50;;
14074;SDS011;12831;52.392;13.066;2023-03-01T02:14:22;16.50;;;9.10;;
14074;SDS011;12831;52.392;13.066;2023-03-01T02:16:48;15.13;;;8.70;;
14074;SDS011;12831;52.392;13.066;2023-03-01T02:19:23;16.70;;;9.00;;
14074;SDS011;12831;52.392;13.066;2023-03-01T02:22:01;17.27;;;10.30;;
14074;SDS011;12831;52.392;13.066;2023-03-01T02:24:32;20.00;;;9.33;;
14074;SDS011;12831;52.392;13.066;2023-03-01T02:27:01;15.27;;;9.00;;
14074;SDS011;12831;52.392;13.066;2023-03-01T02:29:27;18.47;;;10.03;;
14074;SDS011;12831;52.392;13.066;2023-03-01T02:31:54;15.87;;;7.70;;
14074;SDS011;12831;52.392;13.066;2023-03-01T02:34:23;17.20;;;10.17;;
14074;SDS011;12831;52.392;13.066;2023-03-01T02:36:55;18.87;;;8.57;;
14074;SDS011;12831;52.392;13.066;2023-03-01T02:39:28;16.43;;;8.70;;
14074;SDS011;12831;52.392;13.066;2023-03-01T02:41:56;15.97;;;10.17;;
14074;SDS011;12831;52.392;13.066;2023-03-01T02:44:22;16.27;;;8.93;;
14074;SDS011;12831;52.392;13.066;2023-03-01T02:46:49;14.07;;;8.07;;
14074;SDS011;12831;52.392;13.066;2023-03-01T02:49:27;16.60;;;8.80;;
14074;SDS011;12831;52.392;13.066;2023-03-01T02:57:12;19.40;;;9.03;;
14074;SDS011;12831;52.392;13.066;2023-03-01T02:59:39;21.87;;;9.67;;
14074;SDS011;12831;52.392;13.066;2023-03-01T03:02:06;18.17;;;9.47;;
14074;SDS011;12831;52.392;13.066;2023-03-01T03:04:31;16.20;;;8.93;;
14074;SDS011;12831;52.392;13.066;2023-03-01T03:06:57;17.47;;;8.57;;
14074;SDS011;12831;52.392;13.066;2023-03-01T03:09:23;20.10;;;9.40;;
14074;SDS011;12831;52.392;13.066;2023-03-01T03:11:49;20.87;;;11.90;;
14074;SDS011;12831;52.392;13.066;2023-03-01T03:14:16;21.77;;;10.30;;
14074;SDS011;12831;52.392;13.066;2023-03-01T03:16:43;18.33;;;10.17;;
14074;SDS011;12831;52.392;13.066;2023-03-01T03:19:09;20.03;;;9.40;;
14074;SDS011;12831;52.392;13.066;2023-03-01T03:21:35;15.10;;;8.60;;
14074;SDS011;12831;52.392;13.066;2023-03-01T03:24:01;17.97;;;10.40;;
14074;SDS011;12831;52.392;13.066;2023-03-01T03:26:26;17.63;;;9.73;;
14074;SDS011;12831;52.392;13.066;2023-03-01T03:28:52;15.87;;;9.10;;
14074;SDS011;12831;52.392;13.066;2023-03-01T03:31:18;17.20;;;9.90;;
14074;SDS011;12831;52.392;13.066;2023-03-01T03:33:44;19.20;;;9.73;;
14074;SDS011;12831;52.392;13.066;2023-03-01T03:36:14;16.00;;;9.47;;
14074;SDS011;12831;52.392;13.066;2023-03-01T03:38:43;20.40;;;9.70;;
14074;SDS011;12831;52.392;13.066;2023-03-01T03:41:09;18.50;;;8.37;;
14074;SDS011;12831;52.392;13.066;2023-03-01T03:43:36;15.40;;;9.30;;
14074;SDS011;12831;52.392;13.066;2023-03-01T03:46:03;19.87;;;11.13;;
14074;SDS011;12831;52.392;13.066;2023-03-01T03:48:39;19.70;;;10.83;;
14074;SDS011;12831;52.392;13.066;2023-03-01T03:51:05;17.70;;;10.87;;
14074;SDS011;12831;52.392;13.066;2023-03-01T03:53:31;19.03;;;8.63;;
14074;SDS011;12831;52.392;13.066;2023-03-01T03:55:57;13.97;;;9.40;;
14074;SDS011;12831;52.392;13.066;2023-03-01T03:58:24;19.83;;;10.70;;
14074;SDS011;12831;52.392;13.066;2023-03-01T04:00:51;18.13;;;10.20;;
14074;SDS011;12831;52.392;13.066;2023-03-01T04:03:18;19.67;;;9.53;;
14074;SDS011;12831;52.392;13.066;2023-03-01T04:05:44;17.50;;;10.73;;
14074;SDS011;12831;52.392;13.066;2023-03-01T04:08:10;21.07;;;10.93;;
14074;SDS011;12831;52.392;13.066;2023-03-01T04:10:37;19.43;;;10.47;;
14074;SDS011;12831;52.392;13.066;2023-03-01T04:13:07;18.97;;;10.50;;
14074;SDS011;12831;52.392;13.066;2023-03-01T04:15:33;16.97;;;9.90;;
14074;SDS011;12831;52.392;13.066;2023-03-01T04:17:59;16.23;;;10.27;;
14074;SDS011;12831;52.392;13.066;2023-03-01T04:20:26;15.67;;;10.53;;
14074;SDS011;12831;52.392;13.066;2023-03-01T04:22:56;15.17;;;9.53;;
14074;SDS011;12831;52.392;13.066;2023-03-01T04:25:23;22.48;;;12.30;;
14074;SDS011;12831;52.392;13.066;2023-03-01T04:27:49;20.93;;;10.70;;
14074;SDS011;12831;52.392;13.066;2023-03-01T04:30:14;23.20;;;11.80;;
14074;SDS011;12831;52.392;13.066;2023-03-01T04:32:40;17.00;;;10.70;;
14074;SDS011;12831;52.392;13.066;2023-03-01T04:35:06;17.47;;;10.83;;
14074;SDS011;12831;52.392;13.066;2023-03-01T04:37:32;18.30;;;10.90;;
14074;SDS011;12831;52.392;13.066;2023-03-01T04:39:58;18.93;;;10.73;;
14074;SDS011;12831;52.392;13.066;2023-03-01T04:42:23;19.57;;;10.90;;
14074;SDS011;12831;52.392;13.066;2023-03-01T04:44:49;18.70;;;11.47;;
14074;SDS011;12831;52.392;13.066;2023-03-01T04:47:16;16.47;;;9.37;;
14074;SDS011;12831;52.392;13.066;2023-03-01T04:49:42;17.13;;;10.10;;
14074;SDS011;12831;52.392;13.066;2023-03-01T04:52:08;18.27;;;11.23;;
14074;SDS011;12831;52.392;13.066;2023-03-01T04:54:34;21.37;;;10.63;;
14074;SDS011;12831;52.392;13.066;2023-03-01T04:57:01;19.83;;;10.33;;
14074;SDS011;12831;52.392;13.066;2023-03-01T04:59:27;20.60;;;11.77;;
14074;SDS011;12831;52.392;13.066;2023-03-01T05:01:53;19.47;;;11.23;;
14074;SDS011;12831;52.392;13.066;2023-03-01T05:04:21;20.23;;;12.10;;
14074;SDS011;12831;52.392;13.066;2023-03-01T05:06:47;19.07;;;11.37;;
14074;SDS011;12831;52.392;13.066;2023-03-01T05:09:13;23.93;;;12.20;;
14074;SDS011;12831;52.392;13.066;2023-03-01T05:11:39;22.23;;;11.60;;
14074;SDS011;12831;52.392;13.066;2023-03-01T05:14:05;19.90;;;11.53;;
14074;SDS011;12831;52.392;13.066;2023-03-01T05:16:31;20.83;;;11.30;;
14074;SDS011;12831;52.392;13.066;2023-03-01T05:19:01;23.25;;;12.10;;
14074;SDS011;12831;52.392;13.066;2023-03-01T05:21:35;20.00;;;11.73;;
14074;SDS011;12831;52.392;13.066;2023-03-01T05:24:21;22.00;;;13.10;;
14074;SDS011;12831;52.392;13.066;2023-03-01T05:26:47;26.07;;;13.10;;
14074;SDS011;12831;52.392;13.066;2023-03-01T05:29:13;25.50;;;13.80;;
14074;SDS011;12831;52.392;13.066;2023-03-01T05:31:39;25.53;;;13.17;;
14074;SDS011;12831;52.392;13.066;2023-03-01T05:34:05;21.40;;;11.83;;
14074;SDS011;12831;52.392;13.066;2023-03-01T05:36:31;18.63;;;10.97;;
14074;SDS011;12831;52.392;13.066;2023-03-01T05:38:58;23.63;;;11.97;;
14074;SDS011;12831;52.392;13.066;2023-03-01T05:41:24;26.03;;;13.23;;
14074;SDS011;12831;52.392;13.066;2023-03-01T05:43:49;24.90;;;12.40;;
14074;SDS011;12831;52.392;13.066;2023-03-01T05:46:15;22.07;;;12.63;;
14074;SDS011;12831;52.392;13.066;2023-03-01T05:48:41;26.73;;;12.87;;
14074;SDS011;12831;52.392;13.066;2023-03-01T05:51:07;22.10;;;13.20;;
14074;SDS011;12831;52.392;13.066;2023-03-01T05:53:34;23.40;;;12.40;;
14074;SDS011;12831;52.392;13.066;2023-03-01T05:56:02;25.13;;;13.23;;
14074;SDS011;12831;52.392;13.066;2023-03-01T05:58:28;24.30;;;13.20;;
14074;SDS011;12831;52.392;13.066;2023-03-01T06:00:54;20.87;;;12.37;;
14074;SDS011;12831;52.392;13.066;2023-03-01T06:03:22;25.70;;;13.67;;
14074;SDS011;12831;52.392;13.066;2023-03-01T06:05:48;21.63;;;11.57;;
14074;SDS011;12831;52.392;13.066;2023-03-01T06:08:14;25.93;;;13.50;;
14074;SDS011;12831;52.392;13.066;2023-03-01T06:10:40;22.67;;;12.53;;
14074;SDS011;12831;52.392;13.066;2023-03-01T06:13:07;20.03;;;12.07;;
14074;SDS011;12831;52.392;13.066;2023-03-01T06:15:33;20.60;;;12.70;;
14074;SDS011;12831;52.392;13.066;2023-03-01T06:17:59;21.13;;;11.77;;
14074;SDS011;12831;52.392;13.066;2023-03-01T06:20:26;18.57;;;11.17;;
14074;SDS011;12831;52.392;13.066;2023-03-01T06:22:52;16.70;;;10.33;;
14074;SDS011;12831;52.392;13.066;2023-03-01T06:25:19;19.53;;;11.53;;
14074;SDS011;12831;52.392;13.066;2023-03-01T06:27:46;26.27;;;14.50;;
14074;SDS011;12831;52.392;13.066;2023-03-01T06:30:13;21.40;;;11.77;;
14074;SDS011;12831;52.392;13.066;2023-03-01T06:32:39;21.93;;;12.40;;
14074;SDS011;12831;52.392;13.066;2023-03-01T06:35:10;26.00;;;12.27;;
14074;SDS011;12831;52.392;13.066;2023-03-01T06:37:37;24.80;;;12.87;;
14074;SDS011;12831;52.392;13.066;2023-03-01T06:40:04;21.43;;;12.80;;
14074;SDS011;12831;52.392;13.066;2023-03-01T06:42:35;19.27;;;11.63;;
14074;SDS011;12831;52.392;13.066;2023-03-01T06:45:12;25.30;;;11.47;;
14074;SDS011;12831;52.392;13.066;2023-03-01T06:47:38;23.37;;;12.13;;
14074;SDS011;12831;52.392;13.066;2023-03-01T06:50:05;37.50;;;12.80;;
14074;SDS011;12831;52.392;13.066;2023-03-01T06:52:31;24.93;;;12.67;;
14074;SDS011;12831;52.392;13.066;2023-03-01T06:54:58;17.90;;;10.17;;
14074;SDS011;12831;52.392;13.066;2023-03-01T06:57:24;21.67;;;11.63;;
14074;SDS011;12831;52.392;13.066;2023-03-01T06:59:50;18.80;;;11.57;;
14074;SDS011;12831;52.392;13.066;2023-03-01T07:02:17;36.63;;;13.83;;
14074;SDS011;12831;52.392;13.066;2023-03-01T07:04:50;34.43;;;12.03;;
14074;SDS011;12831;52.392;13.066;2023-03-01T07:07:16;35.47;;;13.13;;
14074;SDS011;12831;52.392;13.066;2023-03-01T07:09:46;32.10;;;12.67;;
14074;SDS011;12831;52.392;13.066;2023-03-01T07:12:26;22.60;;;12.60;;
14074;SDS011;12831;52.392;13.066;2023-03-01T07:14:52;22.23;;;12.47;;
14074;SDS011;12831;52.392;13.066;2023-03-01T07:17:23;19.58;;;11.80;;
14074;SDS011;12831;52.392;13.066;2023-03-01T07:19:48;21.57;;;12.03;;
14074;SDS011;12831;52.392;13.066;2023-03-01T07:22:14;24.53;;;12.90;;
14074;SDS011;12831;52.392;13.066;2023-03-01T07:24:41;22.80;;;13.23;;
14074;SDS011;12831;52.392;13.066;2023-03-01T07:27:09;21.17;;;12.30;;
14074;SDS011;12831;52.392;13.066;2023-03-01T07:29:37;27.97;;;12.80;;
14074;SDS011;12831;52.392;13.066;2023-03-01T07:32:10;25.03;;;12.90;;
14074;SDS011;12831;52.392;13.066;2023-03-01T07:34:41;31.83;;;15.27;;
14074;SDS011;12831;52.392;13.066;2023-03-01T07:37:15;43.10;;;15.83;;
14074;SDS011;12831;52.392;13.066;2023-03-01T07:39:57;34.00;;;13.20;;
14074;SDS011;12831;52.392;13.066;2023-03-01T07:42:23;39.33;;;14.40;;
14074;SDS011;12831;52.392;13.066;2023-03-01T07:52:35;29.57;;;15.60;;
14074;SDS011;12831;52.392;13.066;2023-03-01T07:55:08;27.57;;;13.87;;
14074;SDS011;12831;52.392;13.066;2023-03-01T07:57:33;30.27;;;13.47;;
14074;SDS011;12831;52.392;13.066;2023-03-01T08:00:01;23.50;;;13.30;;
14074;SDS011;12831;52.392;13.066;2023-03-01T08:02:27;30.00;;;13.70;;
14074;SDS011;12831;52.392;13.066;2023-03-01T08:05:09;24.43;;;14.23;;
14074;SDS011;12831;52.392;13.066;2023-03-01T08:21:51;28.13;;;13.90;;
14074;SDS011;12831;52.392;13.066;2023-03-01T08:24:17;20.97;;;13.23;;
14074;SDS011;12831;52.392;13.066;2023-03-01T08:26:44;19.43;;;12.20;;
14074;SDS011;12831;52.392;13.066;2023-03-01T08:29:11;22.93;;;12.20;;
14074;SDS011;12831;52.392;13.066;2023-03-01T08:31:38;15.83;;;11.73;;
14074;SDS011;12831;52.392;13.066;2023-03-01T08:34:06;19.87;;;12.20;;
14074;SDS011;12831;52.392;13.066;2023-03-01T08:36:34;21.00;;;12.60;;
14074;SDS011;12831;52.392;13.066;2023-03-01T08:39:11;17.37;;;11.03;;
14074;SDS011;12831;52.392;13.066;2023-03-01T08:50:40;19.00;;;9.60;;
14074;SDS011;12831;52.392;13.066;2023-03-01T08:53:07;16.73;;;8.37;;
14074;SDS011;12831;52.392;13.066;2023-03-01T08:55:48;10.35;;;5.05;;
14074;SDS011;12831;52.392;13.066;2023-03-01T08:58:15;9.43;;;5.23;;
14074;SDS011;12831;52.392;13.066;2023-03-01T09:00:41;10.97;;;5.60;;
14074;SDS011;12831;52.392;13.066;2023-03-01T09:03:08;11.73;;;5.23;;
14074;SDS011;12831;52.392;13.066;2023-03-01T09:05:34;12.80;;;4.37;;
14074;SDS011;12831;52.392;13.066;2023-03-01T09:08:02;7.53;;;3.90;;
14074;SDS011;12831;52.392;13.066;2023-03-01T09:10:28;10.00;;;5.27;;
14074;SDS011;12831;52.392;13.066;2023-03-01T09:12:54;9.90;;;3.83;;
14074;SDS011;12831;52.392;13.066;2023-03-01T09:15:20;9.70;;;5.03;;
14074;SDS011;12831;52.392;13.066;2023-03-01T09:17:46;6.93;;;4.00;;
14074;SDS011;12831;52.392;13.066;2023-03-01T09:20:12;8.10;;;4.33;;
14074;SDS011;12831;52.392;13.066;2023-03-01T09:22:49;8.53;;;4.47;;
14074;SDS011;12831;52.392;13.066;2023-03-01T09:25:15;9.67;;;5.73;;
14074;SDS011;12831;52.392;13.066;2023-03-01T09:27:41;11.47;;;5.70;;
14074;SDS011;12831;52.392;13.066;2023-03-01T09:30:07;8.17;;;5.10;;
14074;SDS011;12831;52.392;13.066;2023-03-01T09:32:34;13.73;;;5.73;;
14074;SDS011;12831;52.392;13.066;2023-03-01T09:35:13;13.10;;;5.33;;
14074;SDS011;12831;52.392;13.066;2023-03-01T09:37:40;9.57;;;5.57;;
14074;SDS011;12831;52.392;13.066;2023-03-01T09:40:12;9.47;;;4.90;;
14074;SDS011;12831;52.392;13.066;2023-03-01T09:43:25;6.30;;;4.18;;
14074;SDS011;12831;52.392;13.066;2023-03-01T09:45:33;9.67;;;4.03;;
14074;SDS011;12831;52.392;13.066;2023-03-01T09:48:00;6.67;;;4.03;;
14074;SDS011;12831;52.392;13.066;2023-03-01T09:50:30;6.53;;;3.87;;
14074;SDS011;12831;52.392;13.066;2023-03-01T09:53:11;9.52;;;4.15;;
14074;SDS011;12831;52.392;13.066;2023-03-01T09:55:40;8.23;;;4.18;;
14074;SDS011;12831;52.392;13.066;2023-03-01T10:00:43;8.40;;;4.28;;
14074;SDS011;12831;52.392;13.066;2023-03-01T10:06:24;7.65;;;3.25;;
14074;SDS011;12831;52.392;13.066;2023-03-01T10:09:05;5.28;;;2.53;;
14074;SDS011;12831;52.392;13.066;2023-03-01T10:11:25;5.20;;;2.95;;
14074;SDS011;12831;52.392;13.066;2023-03-01T10:13:58;5.35;;;2.90;;
14074;SDS011;12831;52.392;13.066;2023-03-01T10:19:17;5.57;;;2.47;;
14074;SDS011;12831;52.392;13.066;2023-03-01T10:21:48;6.57;;;2.50;;
14074;SDS011;12831;52.392;13.066;2023-03-01T10:24:16;6.00;;;2.92;;
14074;SDS011;12831;52.392;13.066;2023-03-01T10:26:52;6.90;;;2.70;;
14074;SDS011;12831;52.392;13.066;2023-03-01T10:29:19;7.75;;;3.72;;
14074;SDS011;12831;52.392;13.066;2023-03-01T10:31:50;6.97;;;3.33;;
14074;SDS011;12831;52.392;13.066;2023-03-01T10:37:30;6.95;;;3.47;;
14074;SDS011;12831;52.392;13.066;2023-03-01T10:39:57;7.60;;;3.00;;
14074;SDS011;12831;52.392;13.066;2023-03-01T10:42:30;5.63;;;2.72;;
14074;SDS011;12831;52.392;13.066;2023-03-01T10:44:57;5.22;;;2.65;;
14074;SDS011;12831;52.392;13.066;2023-03-01T10:47:25;6.03;;;3.38;;
14074;SDS011;12831;52.392;13.066;2023-03-01T10:50:01;4.97;;;2.33;;
14074;SDS011;12831;52.392;13.066;2023-03-01T10:52:35;6.75;;;3.67;;
14074;SDS011;12831;52.392;13.066;2023-03-01T10:55:03;6.03;;;3.10;;
14074;SDS011;12831;52.392;13.066;2023-03-01T10:57:32;6.72;;;2.97;;
14074;SDS011;12831;52.392;13.066;2023-03-01T11:00:19;4.80;;;2.92;;
14074;SDS011;12831;52.392;13.066;2023-03-01T11:02:47;8.90;;;3.53;;
14074;SDS011;12831;52.392;13.066;2023-03-01T11:07:47;5.85;;;3.40;;
14074;SDS011;12831;52.392;13.066;2023-03-01T11:10:17;6.28;;;3.00;;
14074;SDS011;12831;52.392;13.066;2023-03-01T11:12:45;6.18;;;2.90;;
14074;SDS011;12831;52.392;13.066;2023-03-01T11:15:27;4.88;;;3.15;;
14074;SDS011;12831;52.392;13.066;2023-03-01T11:20:36;9.90;;;3.17;;
14074;SDS011;12831;52.392;13.066;2023-03-01T11:23:13;5.30;;;2.92;;
14074;SDS011;12831;52.392;13.066;2023-03-01T11:25:41;6.10;;;3.53;;
14074;SDS011;12831;52.392;13.066;2023-03-01T11:28:16;6.95;;;3.60;;
14074;SDS011;12831;52.392;13.066;2023-03-01T11:30:58;8.10;;;3.60;;
14074;SDS011;12831;52.392;13.066;2023-03-01T11:36:01;7.15;;;4.18;;
14074;SDS011;12831;52.392;13.066;2023-03-01T11:38:29;7.97;;;3.47;;
14074;SDS011;12831;52.392;13.066;2023-03-01T11:41:02;6.97;;;3.88;;
14074;SDS011;12831;52.392;13.066;2023-03-01T11:43:49;6.60;;;2.85;;
14074;SDS011;12831;52.392;13.066;2023-03-01T12:07:04;6.03;;;2.95;;
14074;SDS011;12831;52.392;13.066;2023-03-01T12:12:26;4.68;;;2.53;;
14074;SDS011;12831;52.392;13.066;2023-03-01T12:20:10;4.95;;;2.35;;
14074;SDS011;12831;52.392;13.066;2023-03-01T12:26:34;6.63;;;3.20;;
14074;SDS011;12831;52.392;13.066;2023-03-01T12:31:31;4.53;;;2.05;;
14074;SDS011;12831;52.392;13.066;2023-03-01T12:34:02;5.57;;;1.92;;
14074;SDS011;12831;52.392;13.066;2023-03-01T12:36:31;4.43;;;2.65;;
14074;SDS011;12831;52.392;13.066;2023-03-01T12:39:11;5.38;;;2.63;;
14074;SDS011;12831;52.392;13.066;2023-03-01T12:44:27;5.22;;;2.97;;
14074;SDS011;12831;52.392;13.066;2023-03-01T12:47:15;7.15;;;2.72;;
14074;SDS011;12831;52.392;13.066;2023-03-01T12:49:45;6.32;;;2.63;;
14074;SDS011;12831;52.392;13.066;2023-03-01T12:52:15;4.60;;;2.30;;
14074;SDS011;12831;52.392;13.066;2023-03-01T12:54:42;6.72;;;3.67;;
14074;SDS011;12831;52.392;13.066;2023-03-01T13:05:23;7.30;;;3.15;;
14074;SDS011;12831;52.392;13.066;2023-03-01T13:07:53;8.45;;;4.22;;
14074;SDS011;12831;52.392;13.066;2023-03-01T13:17:43;4.65;;;2.85;;
14074;SDS011;12831;52.392;13.066;2023-03-01T13:20:18;4.57;;;2.30;;
14074;SDS011;12831;52.392;13.066;2023-03-01T13:22:45;6.18;;;2.50;;
14074;SDS011;12831;52.392;13.066;2023-03-01T13:25:20;7.40;;;3.72;;
14074;SDS011;12831;52.392;13.066;2023-03-01T13:27:46;5.63;;;2.55;;
14074;SDS011;12831;52.392;13.066;2023-03-01T13:35:45;10.45;;;2.83;;
14074;SDS011;12831;52.392;13.066;2023-03-01T13:40:57;4.15;;;2.40;;
14074;SDS011;12831;52.392;13.066;2023-03-01T13:43:27;7.00;;;2.15;;
14074;SDS011;12831;52.392;13.066;2023-03-01T13:45:53;5.40;;;2.45;;
14074;SDS011;12831;52.392;13.066;2023-03-01T13:48:27;3.53;;;2.05;;
14074;SDS011;12831;52.392;13.066;2023-03-01T13:50:55;5.60;;;2.47;;
14074;SDS011;12831;52.392;13.066;2023-03-01T13:53:24;5.78;;;2.42;;
14074;SDS011;12831;52.392;13.066;2023-03-01T13:55:51;6.10;;;2.17;;
14074;SDS011;12831;52.392;13.066;2023-03-01T13:58:27;5.70;;;2.10;;
14074;SDS011;12831;52.392;13.066;2023-03-01T14:01:06;4.15;;;2.10;;
14074;SDS011;12831;52.392;13.066;2023-03-01T14:03:40;5.07;;;2.25;;
14074;SDS011;12831;52.392;13.066;2023-03-01T14:06:17;3.72;;;2.03;;
14074;SDS011;12831;52.392;13.066;2023-03-01T14:08:47;4.70;;;2.70;;
14074;SDS011;12831;52.392;13.066;2023-03-01T14:14:03;4.45;;;2.30;;
14074;SDS011;12831;52.392;13.066;2023-03-01T14:16:39;3.53;;;1.98;;
14074;SDS011;12831;52.392;13.066;2023-03-01T14:19:27;4.30;;;2.15;;
14074;SDS011;12831;52.392;13.066;2023-03-01T14:24:28;5.22;;;2.05;;
14074;SDS011;12831;52.392;13.066;2023-03-01T14:26:55;5.43;;;2.17;;
14074;SDS011;12831;52.392;13.066;2023-03-01T14:29:25;5.93;;;2.83;;
14074;SDS011;12831;52.392;13.066;2023-03-01T14:31:51;6.20;;;2.53;;
14074;SDS011;12831;52.392;13.066;2023-03-01T14:34:31;4.55;;;2.30;;
14074;SDS011;12831;52.392;13.066;2023-03-01T14:37:09;5.65;;;2.92;;
14074;SDS011;12831;52.392;13.066;2023-03-01T14:39:35;4.45;;;2.25;;
14074;SDS011;12831;52.392;13.066;2023-03-01T14:42:01;3.67;;;2.00;;
14074;SDS011;12831;52.392;13.066;2023-03-01T14:44:42;3.78;;;2.25;;
14074;SDS011;12831;52.392;13.066;2023-03-01T14:47:12;3.40;;;2.03;;
14074;SDS011;12831;52.392;13.066;2023-03-01T14:49:40;7.78;;;2.88;;
14074;SDS011;12831;52.392;13.066;2023-03-01T14:52:07;7.50;;;3.58;;
14074;SDS011;12831;52.392;13.066;2023-03-01T14:54:46;4.60;;;2.72;;
14074;SDS011;12831;52.392;13.066;2023-03-01T14:57:23;3.45;;;1.83;;
14074;SDS011;12831;52.392;13.066;2023-03-01T14:59:50;4.85;;;2.45;;
14074;SDS011;12831;52.392;13.066;2023-03-01T15:02:19;6.13;;;2.33;;
14074;SDS011;12831;52.392;13.066;2023-03-01T15:04:56;4.63;;;2.35;;
14074;SDS011;12831;52.392;13.066;2023-03-01T15:07:22;5.85;;;2.08;;
14074;SDS011;12831;52.392;13.066;2023-03-01T15:09:52;6.05;;;2.25;;
14074;SDS011;12831;52.392;13.066;2023-03-01T15:14:55;7.50;;;2.15;;
14074;SDS011;12831;52.392;13.066;2023-03-01T15:19:58;5.38;;;2.50;;
14074;SDS011;12831;52.392;13.066;2023-03-01T15:22:25;5.78;;;3.00;;
14074;SDS011;12831;52.392;13.066;2023-03-01T15:24:52;4.18;;;2.17;;
14074;SDS011;12831;52.392;13.066;2023-03-01T15:27:19;5.65;;;2.58;;
14074;SDS011;12831;52.392;13.066;2023-03-01T15:29:48;9.13;;;3.25;;
14074;SDS011;12831;52.392;13.066;2023-03-01T15:32:28;7.38;;;2.50;;
14074;SDS011;12831;52.392;13.066;2023-03-01T15:34:58;5.70;;;2.13;;
14074;SDS011;12831;52.392;13.066;2023-03-01T15:37:43;4.20;;;2.33;;
14074;SDS011;12831;52.392;13.066;2023-03-01T15:42:45;3.70;;;1.90;;
14074;SDS011;12831;52.392;13.066;2023-03-01T15:47:47;5.32;;;2.05;;
14074;SDS011;12831;52.392;13.066;2023-03-01T15:50:20;10.80;;;2.58;;
14074;SDS011;12831;52.392;13.066;2023-03-01T15:52:48;6.18;;;2.40;;
14074;SDS011;12831;52.392;13.066;2023-03-01T15:55:16;4.65;;;2.53;;
14074;SDS011;12831;52.392;13.066;2023-03-01T15:57:42;4.68;;;2.45;;
14074;SDS011;12831;52.392;13.066;2023-03-01T16:00:11;8.23;;;2.28;;
14074;SDS011;12831;52.392;13.066;2023-03-01T16:02:39;5.10;;;2.30;;
14074;SDS011;12831;52.392;13.066;2023-03-01T16:05:15;5.68;;;2.00;;
14074;SDS011;12831;52.392;13.066;2023-03-01T16:07:42;5.95;;;3.20;;
14074;SDS011;12831;52.392;13.066;2023-03-01T16:10:08;5.93;;;2.08;;
14074;SDS011;12831;52.392;13.066;2023-03-01T16:12:34;4.55;;;2.10;;
14074;SDS011;12831;52.392;13.066;2023-03-01T16:15:00;5.65;;;2.10;;
14074;SDS011;12831;52.392;13.066;2023-03-01T16:17:26;4.13;;;1.73;;
14074;SDS011;12831;52.392;13.066;2023-03-01T16:19:52;4.53;;;2.50;;
14074;SDS011;12831;52.392;13.066;2023-03-01T16:22:18;4.55;;;2.90;;
14074;SDS011;12831;52.392;13.066;2023-03-01T16:24:50;5.18;;;2.10;;
14074;SDS011;12831;52.392;13.066;2023-03-01T16:27:16;4.75;;;2.05;;
14074;SDS011;12831;52.392;13.066;2023-03-01T16:29:42;8.52;;;3.10;;
14074;SDS011;12831;52.392;13.066;2023-03-01T16:32:08;4.53;;;2.42;;
14074;SDS011;12831;52.392;13.066;2023-03-01T16:37:44;8.55;;;3.20;;
14074;SDS011;12831;52.392;13.066;2023-03-01T16:40:32;5.80;;;3.30;;
14074;SDS011;12831;52.392;13.066;2023-03-01T16:42:57;8.48;;;4.15;;
14074;SDS011;12831;52.392;13.066;2023-03-01T16:45:27;6.80;;;3.05;;
14074;SDS011;12831;52.392;13.066;2023-03-01T16:47:53;6.03;;;3.50;;
14074;SDS011;12831;52.392;13.066;2023-03-01T16:50:21;8.15;;;3.80;;
14074;SDS011;12831;52.392;13.066;2023-03-01T16:52:47;8.95;;;2.80;;